sensor_id;sensor_type;location;lat;lon;timestamp;P1;durP1;ratioP1;P2;durP2;ratioP2
54561;SDS011;69047;53.358;-1.486;2023-07-02T00:01:44;14.00;;;4.40;;
54561;SDS011;69047;53.358;-1.486;2023-07-02T00:04:09;9.38;;;4.22;;
54561;SDS011;69047;53.358;-1.486;2023-07-02T00:06:35;12.93;;;4.90;;
54561;SDS011;69047;53.358;-1.486;2023-07-02T00:09:15;8.52;;;4.13;;
54561;SDS011;69047;53.358;-1.486;2023-07-02T00:11:44;9.57;;;4.10;;
54561;SDS011;69047;53.358;-1.486;2023-07-02T00:14:13;11.55;;;4.30;;
54561;SDS011;69047;53.358;-1.486;2023-07-02T00:16:39;7.70;;;3.88;;
54561;SDS011;69047;53.358;-1.486;2023-07-02T00:19:07;12.07;;;4.63;;
54561;SDS011;69047;53.358;-1.486;2023-07-02T00:21:33;13.63;;;4.53;;
54561;SDS011;69047;53.358;-1.486;2023-07-02T00:23:58;8.85;;;3.75;;
54561;SDS011;69047;53.358;-1.486;2023-07-02T00:26:25;13.18;;;4.72;;
54561;SDS011;69047;53.358;-1.486;2023-07-02T00:28:51;9.77;;;3.80;;
54561;SDS011;69047;53.358;-1.486;2023-07-02T00:31:16;8.05;;;4.18;;
54561;SDS011;69047;53.358;-1.486;2023-07-02T00:33:42;9.10;;;3.42;;
54561;SDS011;69047;53.358;-1.486;2023-07-02T00:36:07;10.18;;;4.30;;
54561;SDS011;69047;53.358;-1.486;2023-07-02T00:38:38;14.32;;;4.55;;
54561;SDS011;69047;53.358;-1.486;2023-07-02T00:41:03;9.95;;;4.38;;
54561;SDS011;69047;53.358;-1.486;2023-07-02T00:43:30;12.27;;;3.97;;
54561;SDS011;69047;53.358;-1.486;2023-07-02T00:46:01;8.73;;;4.63;;
54561;SDS011;69047;53.358;-1.486;2023-07-02T00:48:33;8.80;;;3.95;;
54561;SDS011;69047;53.358;-1.486;2023-07-02T00:51:05;12.23;;;4.40;;
54561;SDS011;69047;53.358;-1.486;2023-07-02T00:53:37;10.80;;;4.20;;
54561;SDS011;69047;53.358;-1.486;2023-07-02T00:56:10;19.20;;;5.40;;
54561;SDS011;69047;53.358;-1.486;2023-07-02T00:58:39;9.25;;;4.15;;
54561;SDS011;69047;53.358;-1.486;2023-07-02T01:01:18;11.27;;;4.47;;
54561;SDS011;69047;53.358;-1.486;2023-07-02T01:03:51;9.98;;;4.00;;
54561;SDS011;69047;53.358;-1.486;2023-07-02T01:06:32;7.78;;;4.45;;
54561;SDS011;69047;53.358;-1.486;2023-07-02T01:09:03;14.63;;;3.88;;
54561;SDS011;69047;53.358;-1.486;2023-07-02T01:11:40;9.45;;;3.78;;
54561;SDS011;69047;53.358;-1.486;2023-07-02T01:14:20;8.80;;;3.10;;
54561;SDS011;69047;53.358;-1.486;2023-07-02T01:16:54;7.45;;;3.70;;
54561;SDS011;69047;53.358;-1.486;2023-07-02T01:21:59;11.05;;;4.13;;
54561;SDS011;69047;53.358;-1.486;2023-07-02T01:24:27;9.98;;;4.30;;
54561;SDS011;69047;53.358;-1.486;2023-07-02T01:26:56;6.28;;;3.20;;
54561;SDS011;69047;53.358;-1.486;2023-07-02T01:29:30;12.43;;;4.28;;
54561;SDS011;69047;53.358;-1.486;2023-07-02T01:32:01;7.63;;;3.42;;
54561;SDS011;69047;53.358;-1.486;2023-07-02T01:34:27;8.93;;;3.80;;
54561;SDS011;69047;53.358;-1.486;2023-07-02T01:36:53;9.65;;;4.10;;
54561;SDS011;69047;53.358;-1.486;2023-07-02T01:39:18;10.20;;;3.60;;
54561;SDS011;69047;53.358;-1.486;2023-07-02T01:41:44;8.15;;;3.13;;
54561;SDS011;69047;53.358;-1.486;2023-07-02T01:44:14;8.60;;;3.15;;
54561;SDS011;69047;53.358;-1.486;2023-07-02T01:46:40;11.10;;;4.13;;
54561;SDS011;69047;53.358;-1.486;2023-07-02T01:49:05;6.18;;;3.70;;
54561;SDS011;69047;53.358;-1.486;2023-07-02T01:51:30;9.02;;;3.30;;
54561;SDS011;69047;53.358;-1.486;2023-07-02T01:53:56;8.43;;;3.30;;
54561;SDS011;69047;53.358;-1.486;2023-07-02T01:56:21;10.55;;;3.83;;
54561;SDS011;69047;53.358;-1.486;2023-07-02T01:58:47;7.25;;;3.42;;
54561;SDS011;69047;53.358;-1.486;2023-07-02T02:01:12;6.38;;;2.75;;
54561;SDS011;69047;53.358;-1.486;2023-07-02T02:03:37;6.72;;;3.33;;
54561;SDS011;69047;53.358;-1.486;2023-07-02T02:06:03;7.60;;;3.13;;
54561;SDS011;69047;53.358;-1.486;2023-07-02T02:08:28;8.68;;;4.13;;
54561;SDS011;69047;53.358;-1.486;2023-07-02T02:10:53;6.90;;;3.22;;
54561;SDS011;69047;53.358;-1.486;2023-07-02T02:13:19;12.20;;;4.05;;
54561;SDS011;69047;53.358;-1.486;2023-07-02T02:15:44;10.80;;;3.90;;
54561;SDS011;69047;53.358;-1.486;2023-07-02T02:18:10;12.40;;;3.35;;
54561;SDS011;69047;53.358;-1.486;2023-07-02T02:20:35;11.40;;;3.97;;
54561;SDS011;69047;53.358;-1.486;2023-07-02T02:23:00;10.65;;;4.03;;
54561;SDS011;69047;53.358;-1.486;2023-07-02T02:25:26;9.77;;;3.78;;
54561;SDS011;69047;53.358;-1.486;2023-07-02T02:27:51;8.48;;;3.75;;
54561;SDS011;69047;53.358;-1.486;2023-07-02T02:30:16;9.70;;;3.80;;
54561;SDS011;69047;53.358;-1.486;2023-07-02T02:32:42;7.60;;;3.08;;
54561;SDS011;69047;53.358;-1.486;2023-07-02T02:35:07;16.45;;;3.70;;
54561;SDS011;69047;53.358;-1.486;2023-07-02T02:37:34;15.35;;;4.18;;
54561;SDS011;69047;53.358;-1.486;2023-07-02T02:40:00;8.05;;;3.33;;
54561;SDS011;69047;53.358;-1.486;2023-07-02T02:42:26;12.23;;;3.63;;
54561;SDS011;69047;53.358;-1.486;2023-07-02T02:44:51;10.32;;;3.90;;
54561;SDS011;69047;53.358;-1.486;2023-07-02T02:47:17;6.68;;;2.78;;
54561;SDS011;69047;53.358;-1.486;2023-07-02T02:49:42;12.55;;;3.80;;
54561;SDS011;69047;53.358;-1.486;2023-07-02T02:52:08;12.52;;;4.05;;
54561;SDS011;69047;53.358;-1.486;2023-07-02T02:54:33;9.85;;;3.72;;
54561;SDS011;69047;53.358;-1.486;2023-07-02T02:56:59;8.60;;;3.85;;
54561;SDS011;69047;53.358;-1.486;2023-07-02T02:59:24;13.77;;;3.63;;
54561;SDS011;69047;53.358;-1.486;2023-07-02T03:01:49;8.50;;;3.47;;
54561;SDS011;69047;53.358;-1.486;2023-07-02T03:04:16;11.48;;;3.67;;
54561;SDS011;69047;53.358;-1.486;2023-07-02T03:06:41;9.35;;;3.38;;
54561;SDS011;69047;53.358;-1.486;2023-07-02T03:09:07;6.97;;;3.35;;
54561;SDS011;69047;53.358;-1.486;2023-07-02T03:11:32;11.93;;;3.70;;
54561;SDS011;69047;53.358;-1.486;2023-07-02T03:13:58;8.48;;;3.65;;
54561;SDS011;69047;53.358;-1.486;2023-07-02T03:16:23;7.70;;;2.58;;
54561;SDS011;69047;53.358;-1.486;2023-07-02T03:18:48;9.38;;;3.50;;
54561;SDS011;69047;53.358;-1.486;2023-07-02T03:21:14;10.73;;;4.20;;
54561;SDS011;69047;53.358;-1.486;2023-07-02T03:23:39;8.68;;;3.55;;
54561;SDS011;69047;53.358;-1.486;2023-07-02T03:26:04;8.38;;;3.67;;
54561;SDS011;69047;53.358;-1.486;2023-07-02T03:28:30;11.82;;;3.92;;
54561;SDS011;69047;53.358;-1.486;2023-07-02T03:30:56;8.93;;;3.83;;
54561;SDS011;69047;53.358;-1.486;2023-07-02T03:33:21;7.30;;;3.38;;
54561;SDS011;69047;53.358;-1.486;2023-07-02T03:35:46;9.88;;;3.33;;
54561;SDS011;69047;53.358;-1.486;2023-07-02T03:38:12;7.15;;;2.83;;
54561;SDS011;69047;53.358;-1.486;2023-07-02T03:40:37;7.60;;;2.90;;
54561;SDS011;69047;53.358;-1.486;2023-07-02T03:43:02;8.73;;;2.80;;
54561;SDS011;69047;53.358;-1.486;2023-07-02T03:45:28;13.50;;;3.67;;
54561;SDS011;69047;53.358;-1.486;2023-07-02T03:47:53;6.03;;;2.88;;
54561;SDS011;69047;53.358;-1.486;2023-07-02T03:50:19;6.00;;;2.78;;
54561;SDS011;69047;53.358;-1.486;2023-07-02T03:52:44;7.25;;;3.40;;
54561;SDS011;69047;53.358;-1.486;2023-07-02T03:55:10;7.50;;;2.85;;
54561;SDS011;69047;53.358;-1.486;2023-07-02T03:57:35;10.35;;;3.65;;
54561;SDS011;69047;53.358;-1.486;2023-07-02T04:00:00;10.00;;;3.05;;
54561;SDS011;69047;53.358;-1.486;2023-07-02T04:02:26;7.82;;;3.50;;
54561;SDS011;69047;53.358;-1.486;2023-07-02T04:04:51;8.55;;;3.33;;
54561;SDS011;69047;53.358;-1.486;2023-07-02T04:07:16;7.32;;;2.72;;
54561;SDS011;69047;53.358;-1.486;2023-07-02T04:09:42;9.13;;;3.38;;
54561;SDS011;69047;53.358;-1.486;2023-07-02T04:12:07;8.73;;;3.10;;
54561;SDS011;69047;53.358;-1.486;2023-07-02T04:14:33;8.25;;;3.70;;
54561;SDS011;69047;53.358;-1.486;2023-07-02T04:16:58;6.80;;;2.95;;
54561;SDS011;69047;53.358;-1.486;2023-07-02T04:19:23;8.02;;;3.15;;
54561;SDS011;69047;53.358;-1.486;2023-07-02T04:21:49;4.80;;;2.53;;
54561;SDS011;69047;53.358;-1.486;2023-07-02T04:24:14;8.93;;;3.38;;
54561;SDS011;69047;53.358;-1.486;2023-07-02T04:26:39;5.18;;;3.03;;
54561;SDS011;69047;53.358;-1.486;2023-07-02T04:29:07;8.20;;;3.38;;
54561;SDS011;69047;53.358;-1.486;2023-07-02T04:31:34;6.65;;;2.85;;
54561;SDS011;69047;53.358;-1.486;2023-07-02T04:33:59;6.53;;;3.05;;
54561;SDS011;69047;53.358;-1.486;2023-07-02T04:36:25;7.00;;;3.13;;
54561;SDS011;69047;53.358;-1.486;2023-07-02T04:38:50;7.90;;;3.05;;
54561;SDS011;69047;53.358;-1.486;2023-07-02T04:41:17;6.75;;;3.22;;
54561;SDS011;69047;53.358;-1.486;2023-07-02T04:43:43;6.03;;;3.35;;
54561;SDS011;69047;53.358;-1.486;2023-07-02T04:46:10;7.65;;;2.90;;
54561;SDS011;69047;53.358;-1.486;2023-07-02T04:48:37;7.63;;;3.03;;
54561;SDS011;69047;53.358;-1.486;2023-07-02T04:51:03;9.07;;;3.53;;
54561;SDS011;69047;53.358;-1.486;2023-07-02T04:53:28;17.83;;;4.05;;
54561;SDS011;69047;53.358;-1.486;2023-07-02T04:55:54;7.35;;;3.35;;
54561;SDS011;69047;53.358;-1.486;2023-07-02T04:58:19;6.47;;;3.00;;
54561;SDS011;69047;53.358;-1.486;2023-07-02T05:00:45;10.35;;;4.07;;
54561;SDS011;69047;53.358;-1.486;2023-07-02T05:03:10;6.80;;;2.97;;
54561;SDS011;69047;53.358;-1.486;2023-07-02T05:05:36;10.00;;;2.83;;
54561;SDS011;69047;53.358;-1.486;2023-07-02T05:08:01;9.82;;;3.25;;
54561;SDS011;69047;53.358;-1.486;2023-07-02T05:10:26;7.47;;;3.45;;
54561;SDS011;69047;53.358;-1.486;2023-07-02T05:12:52;11.23;;;3.55;;
54561;SDS011;69047;53.358;-1.486;2023-07-02T05:15:17;9.15;;;3.72;;
54561;SDS011;69047;53.358;-1.486;2023-07-02T05:17:43;6.85;;;3.30;;
54561;SDS011;69047;53.358;-1.486;2023-07-02T05:20:08;7.10;;;3.55;;
54561;SDS011;69047;53.358;-1.486;2023-07-02T05:22:34;7.68;;;2.95;;
54561;SDS011;69047;53.358;-1.486;2023-07-02T05:24:59;10.13;;;3.33;;
54561;SDS011;69047;53.358;-1.486;2023-07-02T05:27:25;9.25;;;2.60;;
54561;SDS011;69047;53.358;-1.486;2023-07-02T05:29:50;7.13;;;2.90;;
54561;SDS011;69047;53.358;-1.486;2023-07-02T05:32:15;8.02;;;2.97;;
54561;SDS011;69047;53.358;-1.486;2023-07-02T05:34:41;11.35;;;3.63;;
54561;SDS011;69047;53.358;-1.486;2023-07-02T05:37:06;6.78;;;2.83;;
54561;SDS011;69047;53.358;-1.486;2023-07-02T05:39:33;11.02;;;3.20;;
54561;SDS011;69047;53.358;-1.486;2023-07-02T05:41:59;11.13;;;3.15;;
54561;SDS011;69047;53.358;-1.486;2023-07-02T05:44:24;5.35;;;2.50;;
54561;SDS011;69047;53.358;-1.486;2023-07-02T05:46:50;5.57;;;2.72;;
54561;SDS011;69047;53.358;-1.486;2023-07-02T05:49:15;6.30;;;2.95;;
54561;SDS011;69047;53.358;-1.486;2023-07-02T05:51:40;8.38;;;3.45;;
54561;SDS011;69047;53.358;-1.486;2023-07-02T05:54:06;7.15;;;2.78;;
54561;SDS011;69047;53.358;-1.486;2023-07-02T05:56:31;10.98;;;3.20;;
54561;SDS011;69047;53.358;-1.486;2023-07-02T05:58:57;7.57;;;2.83;;
54561;SDS011;69047;53.358;-1.486;2023-07-02T06:01:22;7.38;;;2.97;;
54561;SDS011;69047;53.358;-1.486;2023-07-02T06:03:49;6.25;;;2.70;;
54561;SDS011;69047;53.358;-1.486;2023-07-02T06:06:14;8.68;;;3.20;;
54561;SDS011;69047;53.358;-1.486;2023-07-02T06:08:40;7.07;;;2.80;;
54561;SDS011;69047;53.358;-1.486;2023-07-02T06:11:05;11.27;;;3.00;;
54561;SDS011;69047;53.358;-1.486;2023-07-02T06:13:31;4.72;;;2.50;;
54561;SDS011;69047;53.358;-1.486;2023-07-02T06:15:56;7.07;;;3.13;;
54561;SDS011;69047;53.358;-1.486;2023-07-02T06:18:22;7.18;;;3.05;;
54561;SDS011;69047;53.358;-1.486;2023-07-02T06:20:47;6.45;;;2.80;;
54561;SDS011;69047;53.358;-1.486;2023-07-02T06:23:13;9.68;;;3.03;;
54561;SDS011;69047;53.358;-1.486;2023-07-02T06:25:38;5.40;;;2.58;;
54561;SDS011;69047;53.358;-1.486;2023-07-02T06:28:03;9.50;;;3.85;;
54561;SDS011;69047;53.358;-1.486;2023-07-02T06:30:29;6.80;;;2.45;;
54561;SDS011;69047;53.358;-1.486;2023-07-02T06:32:54;5.57;;;2.92;;
54561;SDS011;69047;53.358;-1.486;2023-07-02T06:35:20;10.77;;;3.28;;
54561;SDS011;69047;53.358;-1.486;2023-07-02T06:37:46;8.50;;;3.60;;
54561;SDS011;69047;53.358;-1.486;2023-07-02T06:40:11;4.93;;;2.60;;
54561;SDS011;69047;53.358;-1.486;2023-07-02T06:42:37;6.18;;;2.55;;
54561;SDS011;69047;53.358;-1.486;2023-07-02T06:45:02;5.53;;;2.92;;
54561;SDS011;69047;53.358;-1.486;2023-07-02T06:47:28;5.72;;;2.80;;
54561;SDS011;69047;53.358;-1.486;2023-07-02T06:49:53;6.45;;;3.25;;
54561;SDS011;69047;53.358;-1.486;2023-07-02T06:52:19;14.05;;;2.90;;
54561;SDS011;69047;53.358;-1.486;2023-07-02T06:54:44;6.85;;;2.92;;
54561;SDS011;69047;53.358;-1.486;2023-07-02T06:57:10;7.35;;;3.45;;
54561;SDS011;69047;53.358;-1.486;2023-07-02T06:59:35;8.93;;;2.83;;
54561;SDS011;69047;53.358;-1.486;2023-07-02T07:02:01;9.18;;;3.25;;
54561;SDS011;69047;53.358;-1.486;2023-07-02T07:04:27;10.30;;;3.70;;
54561;SDS011;69047;53.358;-1.486;2023-07-02T07:06:53;6.20;;;2.83;;
54561;SDS011;69047;53.358;-1.486;2023-07-02T07:09:20;7.53;;;2.45;;
54561;SDS011;69047;53.358;-1.486;2023-07-02T07:11:46;5.57;;;2.78;;
54561;SDS011;69047;53.358;-1.486;2023-07-02T07:14:11;9.88;;;3.83;;
54561;SDS011;69047;53.358;-1.486;2023-07-02T07:16:37;11.52;;;3.45;;
54561;SDS011;69047;53.358;-1.486;2023-07-02T07:19:02;9.75;;;3.25;;
54561;SDS011;69047;53.358;-1.486;2023-07-02T07:21:28;6.60;;;3.20;;
54561;SDS011;69047;53.358;-1.486;2023-07-02T07:23:53;8.70;;;3.25;;
54561;SDS011;69047;53.358;-1.486;2023-07-02T07:26:19;9.68;;;3.53;;
54561;SDS011;69047;53.358;-1.486;2023-07-02T07:28:44;12.05;;;3.55;;
54561;SDS011;69047;53.358;-1.486;2023-07-02T07:31:10;11.88;;;3.58;;
54561;SDS011;69047;53.358;-1.486;2023-07-02T07:33:35;11.75;;;3.70;;
54561;SDS011;69047;53.358;-1.486;2023-07-02T07:36:00;10.05;;;3.80;;
54561;SDS011;69047;53.358;-1.486;2023-07-02T07:38:26;13.50;;;4.25;;
54561;SDS011;69047;53.358;-1.486;2023-07-02T07:40:51;12.90;;;4.50;;
54561;SDS011;69047;53.358;-1.486;2023-07-02T07:43:17;15.75;;;4.18;;
54561;SDS011;69047;53.358;-1.486;2023-07-02T07:45:42;14.73;;;4.07;;
54561;SDS011;69047;53.358;-1.486;2023-07-02T07:48:08;13.13;;;3.90;;
54561;SDS011;69047;53.358;-1.486;2023-07-02T07:50:33;9.23;;;3.70;;
54561;SDS011;69047;53.358;-1.486;2023-07-02T07:52:58;20.27;;;4.57;;
54561;SDS011;69047;53.358;-1.486;2023-07-02T07:55:24;14.95;;;3.40;;
54561;SDS011;69047;53.358;-1.486;2023-07-02T07:57:49;11.35;;;4.45;;
54561;SDS011;69047;53.358;-1.486;2023-07-02T08:00:15;15.38;;;4.05;;
54561;SDS011;69047;53.358;-1.486;2023-07-02T08:02:42;15.35;;;4.03;;
54561;SDS011;69047;53.358;-1.486;2023-07-02T08:05:07;13.02;;;3.63;;
54561;SDS011;69047;53.358;-1.486;2023-07-02T08:07:33;13.02;;;4.10;;
54561;SDS011;69047;53.358;-1.486;2023-07-02T08:09:58;14.57;;;3.40;;
54561;SDS011;69047;53.358;-1.486;2023-07-02T08:12:24;15.57;;;4.30;;
54561;SDS011;69047;53.358;-1.486;2023-07-02T08:14:51;14.68;;;4.18;;
54561;SDS011;69047;53.358;-1.486;2023-07-02T08:17:17;12.48;;;3.65;;
54561;SDS011;69047;53.358;-1.486;2023-07-02T08:19:42;17.75;;;4.18;;
54561;SDS011;69047;53.358;-1.486;2023-07-02T08:22:08;14.75;;;4.47;;
54561;SDS011;69047;53.358;-1.486;2023-07-02T08:24:33;18.10;;;4.20;;
54561;SDS011;69047;53.358;-1.486;2023-07-02T08:26:59;19.25;;;4.32;;
54561;SDS011;69047;53.358;-1.486;2023-07-02T08:29:26;11.70;;;3.97;;
54561;SDS011;69047;53.358;-1.486;2023-07-02T08:31:51;12.15;;;3.95;;
54561;SDS011;69047;53.358;-1.486;2023-07-02T08:34:17;16.27;;;4.22;;
54561;SDS011;69047;53.358;-1.486;2023-07-02T08:36:42;18.35;;;3.97;;
54561;SDS011;69047;53.358;-1.486;2023-07-02T08:39:08;18.60;;;4.43;;
54561;SDS011;69047;53.358;-1.486;2023-07-02T08:41:44;13.52;;;4.15;;
54561;SDS011;69047;53.358;-1.486;2023-07-02T08:44:11;16.80;;;4.05;;
54561;SDS011;69047;53.358;-1.486;2023-07-02T08:46:38;23.88;;;4.43;;
54561;SDS011;69047;53.358;-1.486;2023-07-02T08:49:04;15.25;;;3.67;;
54561;SDS011;69047;53.358;-1.486;2023-07-02T08:51:29;16.02;;;3.90;;
54561;SDS011;69047;53.358;-1.486;2023-07-02T08:53:55;15.40;;;3.95;;
54561;SDS011;69047;53.358;-1.486;2023-07-02T08:56:21;13.88;;;3.85;;
54561;SDS011;69047;53.358;-1.486;2023-07-02T08:58:46;14.13;;;3.75;;
54561;SDS011;69047;53.358;-1.486;2023-07-02T09:01:12;19.45;;;4.05;;
54561;SDS011;69047;53.358;-1.486;2023-07-02T09:03:38;43.45;;;4.30;;
54561;SDS011;69047;53.358;-1.486;2023-07-02T09:06:05;24.33;;;4.95;;
54561;SDS011;69047;53.358;-1.486;2023-07-02T09:08:31;14.75;;;3.75;;
54561;SDS011;69047;53.358;-1.486;2023-07-02T09:13:31;37.25;;;4.78;;
54561;SDS011;69047;53.358;-1.486;2023-07-02T09:16:06;15.98;;;4.22;;
54561;SDS011;69047;53.358;-1.486;2023-07-02T09:18:31;18.88;;;3.97;;
54561;SDS011;69047;53.358;-1.486;2023-07-02T09:20:57;15.30;;;3.65;;
54561;SDS011;69047;53.358;-1.486;2023-07-02T09:23:22;29.00;;;4.57;;
54561;SDS011;69047;53.358;-1.486;2023-07-02T09:25:48;12.43;;;3.20;;
54561;SDS011;69047;53.358;-1.486;2023-07-02T09:28:16;12.45;;;4.25;;
54561;SDS011;69047;53.358;-1.486;2023-07-02T09:30:52;17.73;;;3.20;;
54561;SDS011;69047;53.358;-1.486;2023-07-02T09:33:19;13.30;;;3.00;;
54561;SDS011;69047;53.358;-1.486;2023-07-02T09:35:46;13.60;;;3.33;;
54561;SDS011;69047;53.358;-1.486;2023-07-02T09:38:12;16.75;;;3.30;;
54561;SDS011;69047;53.358;-1.486;2023-07-02T09:40:42;13.38;;;3.63;;
54561;SDS011;69047;53.358;-1.486;2023-07-02T09:43:11;12.20;;;3.33;;
54561;SDS011;69047;53.358;-1.486;2023-07-02T09:45:36;14.98;;;3.22;;
54561;SDS011;69047;53.358;-1.486;2023-07-02T09:48:03;12.15;;;2.95;;
54561;SDS011;69047;53.358;-1.486;2023-07-02T09:50:29;12.57;;;3.35;;
54561;SDS011;69047;53.358;-1.486;2023-07-02T09:52:55;15.98;;;3.30;;
54561;SDS011;69047;53.358;-1.486;2023-07-02T09:55:23;14.20;;;3.05;;
54561;SDS011;69047;53.358;-1.486;2023-07-02T09:57:49;9.80;;;2.58;;
54561;SDS011;69047;53.358;-1.486;2023-07-02T10:00:14;14.25;;;2.95;;
54561;SDS011;69047;53.358;-1.486;2023-07-02T10:02:40;13.43;;;3.17;;
54561;SDS011;69047;53.358;-1.486;2023-07-02T10:05:06;47.40;;;7.40;;
54561;SDS011;69047;53.358;-1.486;2023-07-02T10:07:32;9.50;;;2.55;;
54561;SDS011;69047;53.358;-1.486;2023-07-02T10:10:00;10.30;;;2.65;;
54561;SDS011;69047;53.358;-1.486;2023-07-02T10:12:26;9.70;;;2.55;;
54561;SDS011;69047;53.358;-1.486;2023-07-02T10:14:54;20.80;;;3.35;;
54561;SDS011;69047;53.358;-1.486;2023-07-02T10:17:25;15.57;;;2.58;;
54561;SDS011;69047;53.358;-1.486;2023-07-02T10:19:56;10.02;;;2.97;;
54561;SDS011;69047;53.358;-1.486;2023-07-02T10:22:23;12.65;;;2.45;;
54561;SDS011;69047;53.358;-1.486;2023-07-02T10:24:55;9.95;;;2.33;;
54561;SDS011;69047;53.358;-1.486;2023-07-02T10:27:37;14.05;;;3.00;;
54561;SDS011;69047;53.358;-1.486;2023-07-02T10:30:07;9.98;;;2.45;;
54561;SDS011;69047;53.358;-1.486;2023-07-02T10:32:35;17.92;;;2.20;;
54561;SDS011;69047;53.358;-1.486;2023-07-02T10:35:01;7.72;;;2.33;;
54561;SDS011;69047;53.358;-1.486;2023-07-02T10:37:36;14.35;;;2.70;;
54561;SDS011;69047;53.358;-1.486;2023-07-02T10:40:06;16.08;;;2.10;;
54561;SDS011;69047;53.358;-1.486;2023-07-02T10:42:32;7.95;;;1.95;;
54561;SDS011;69047;53.358;-1.486;2023-07-02T10:44:59;8.23;;;2.33;;
54561;SDS011;69047;53.358;-1.486;2023-07-02T10:47:25;14.45;;;2.53;;
54561;SDS011;69047;53.358;-1.486;2023-07-02T10:49:50;8.40;;;1.95;;
54561;SDS011;69047;53.358;-1.486;2023-07-02T10:52:16;13.65;;;2.53;;
54561;SDS011;69047;53.358;-1.486;2023-07-02T10:54:42;11.70;;;2.50;;
54561;SDS011;69047;53.358;-1.486;2023-07-02T10:57:09;15.95;;;3.03;;
54561;SDS011;69047;53.358;-1.486;2023-07-02T10:59:36;9.80;;;1.85;;
54561;SDS011;69047;53.358;-1.486;2023-07-02T11:02:02;10.63;;;2.38;;
54561;SDS011;69047;53.358;-1.486;2023-07-02T11:04:32;5.07;;;1.80;;
54561;SDS011;69047;53.358;-1.486;2023-07-02T11:06:58;6.22;;;2.30;;
54561;SDS011;69047;53.358;-1.486;2023-07-02T11:09:24;9.32;;;2.03;;
54561;SDS011;69047;53.358;-1.486;2023-07-02T11:11:54;8.82;;;2.10;;
54561;SDS011;69047;53.358;-1.486;2023-07-02T11:16:56;5.95;;;1.88;;
54561;SDS011;69047;53.358;-1.486;2023-07-02T11:19:23;6.70;;;1.88;;
54561;SDS011;69047;53.358;-1.486;2023-07-02T11:21:52;6.93;;;2.15;;
54561;SDS011;69047;53.358;-1.486;2023-07-02T11:24:32;3.13;;;1.73;;
54561;SDS011;69047;53.358;-1.486;2023-07-02T11:27:00;9.13;;;1.90;;
54561;SDS011;69047;53.358;-1.486;2023-07-02T11:29:28;8.52;;;2.63;;
54561;SDS011;69047;53.358;-1.486;2023-07-02T11:31:54;9.25;;;2.05;;
54561;SDS011;69047;53.358;-1.486;2023-07-02T11:34:20;9.10;;;2.28;;
54561;SDS011;69047;53.358;-1.486;2023-07-02T11:36:47;12.38;;;2.05;;
54561;SDS011;69047;53.358;-1.486;2023-07-02T11:39:13;6.43;;;1.83;;
54561;SDS011;69047;53.358;-1.486;2023-07-02T11:41:41;7.30;;;1.90;;
54561;SDS011;69047;53.358;-1.486;2023-07-02T11:44:08;6.45;;;1.90;;
54561;SDS011;69047;53.358;-1.486;2023-07-02T11:46:33;7.45;;;1.42;;
54561;SDS011;69047;53.358;-1.486;2023-07-02T11:49:00;5.13;;;1.48;;
54561;SDS011;69047;53.358;-1.486;2023-07-02T11:51:26;12.98;;;1.88;;
54561;SDS011;69047;53.358;-1.486;2023-07-02T11:53:51;5.57;;;1.38;;
54561;SDS011;69047;53.358;-1.486;2023-07-02T11:56:17;11.38;;;2.30;;
54561;SDS011;69047;53.358;-1.486;2023-07-02T11:58:43;7.57;;;1.88;;
54561;SDS011;69047;53.358;-1.486;2023-07-02T12:01:08;11.20;;;1.63;;
54561;SDS011;69047;53.358;-1.486;2023-07-02T12:03:34;4.00;;;1.60;;
54561;SDS011;69047;53.358;-1.486;2023-07-02T12:05:59;9.32;;;2.33;;
54561;SDS011;69047;53.358;-1.486;2023-07-02T12:08:25;8.50;;;2.10;;
54561;SDS011;69047;53.358;-1.486;2023-07-02T12:10:51;5.47;;;1.60;;
54561;SDS011;69047;53.358;-1.486;2023-07-02T12:13:17;5.72;;;2.08;;
54561;SDS011;69047;53.358;-1.486;2023-07-02T12:15:42;6.15;;;1.45;;
54561;SDS011;69047;53.358;-1.486;2023-07-02T12:18:08;25.33;;;2.28;;
54561;SDS011;69047;53.358;-1.486;2023-07-02T12:20:35;9.02;;;1.60;;
54561;SDS011;69047;53.358;-1.486;2023-07-02T12:23:00;10.27;;;1.98;;
54561;SDS011;69047;53.358;-1.486;2023-07-02T12:25:26;6.25;;;1.50;;
54561;SDS011;69047;53.358;-1.486;2023-07-02T12:27:55;10.10;;;1.83;;
54561;SDS011;69047;53.358;-1.486;2023-07-02T12:30:31;7.60;;;1.77;;
54561;SDS011;69047;53.358;-1.486;2023-07-02T12:32:57;7.45;;;2.10;;
54561;SDS011;69047;53.358;-1.486;2023-07-02T12:35:23;11.73;;;2.50;;
54561;SDS011;69047;53.358;-1.486;2023-07-02T12:37:49;5.97;;;1.67;;
54561;SDS011;69047;53.358;-1.486;2023-07-02T12:40:16;4.63;;;1.67;;
54561;SDS011;69047;53.358;-1.486;2023-07-02T12:42:43;11.07;;;1.75;;
54561;SDS011;69047;53.358;-1.486;2023-07-02T12:45:09;8.88;;;2.35;;
54561;SDS011;69047;53.358;-1.486;2023-07-02T12:47:36;8.18;;;2.13;;
54561;SDS011;69047;53.358;-1.486;2023-07-02T12:50:02;10.90;;;2.92;;
54561;SDS011;69047;53.358;-1.486;2023-07-02T12:52:29;7.75;;;2.22;;
54561;SDS011;69047;53.358;-1.486;2023-07-02T12:54:54;12.88;;;2.63;;
54561;SDS011;69047;53.358;-1.486;2023-07-02T12:57:20;10.80;;;2.17;;
54561;SDS011;69047;53.358;-1.486;2023-07-02T12:59:46;12.82;;;2.13;;
54561;SDS011;69047;53.358;-1.486;2023-07-02T13:02:11;6.35;;;1.95;;
54561;SDS011;69047;53.358;-1.486;2023-07-02T13:04:37;10.25;;;2.20;;
54561;SDS011;69047;53.358;-1.486;2023-07-02T13:07:03;15.35;;;2.15;;
54561;SDS011;69047;53.358;-1.486;2023-07-02T13:09:29;8.90;;;2.10;;
54561;SDS011;69047;53.358;-1.486;2023-07-02T13:11:54;9.00;;;1.83;;
54561;SDS011;69047;53.358;-1.486;2023-07-02T13:14:20;8.50;;;2.30;;
54561;SDS011;69047;53.358;-1.486;2023-07-02T13:16:46;13.70;;;2.60;;
54561;SDS011;69047;53.358;-1.486;2023-07-02T13:19:11;37.72;;;3.38;;
54561;SDS011;69047;53.358;-1.486;2023-07-02T13:21:37;5.15;;;1.77;;
54561;SDS011;69047;53.358;-1.486;2023-07-02T13:24:03;6.10;;;1.92;;
54561;SDS011;69047;53.358;-1.486;2023-07-02T13:26:28;7.75;;;2.05;;
54561;SDS011;69047;53.358;-1.486;2023-07-02T13:28:54;7.72;;;2.10;;
54561;SDS011;69047;53.358;-1.486;2023-07-02T13:31:20;9.80;;;2.17;;
54561;SDS011;69047;53.358;-1.486;2023-07-02T13:33:45;6.47;;;2.10;;
54561;SDS011;69047;53.358;-1.486;2023-07-02T13:36:11;7.28;;;2.03;;
54561;SDS011;69047;53.358;-1.486;2023-07-02T13:38:37;10.18;;;2.58;;
54561;SDS011;69047;53.358;-1.486;2023-07-02T13:41:03;10.00;;;2.00;;
54561;SDS011;69047;53.358;-1.486;2023-07-02T13:43:29;12.77;;;2.10;;
54561;SDS011;69047;53.358;-1.486;2023-07-02T13:45:54;18.80;;;3.72;;
54561;SDS011;69047;53.358;-1.486;2023-07-02T13:48:20;6.47;;;2.10;;
54561;SDS011;69047;53.358;-1.486;2023-07-02T13:50:45;5.65;;;1.90;;
54561;SDS011;69047;53.358;-1.486;2023-07-02T13:53:11;9.27;;;1.85;;
54561;SDS011;69047;53.358;-1.486;2023-07-02T13:55:36;9.63;;;2.00;;
54561;SDS011;69047;53.358;-1.486;2023-07-02T13:58:02;5.93;;;1.80;;
54561;SDS011;69047;53.358;-1.486;2023-07-02T14:00:28;8.07;;;1.27;;
54561;SDS011;69047;53.358;-1.486;2023-07-02T14:02:53;10.90;;;2.15;;
54561;SDS011;69047;53.358;-1.486;2023-07-02T14:05:19;9.90;;;1.80;;
54561;SDS011;69047;53.358;-1.486;2023-07-02T14:07:45;5.90;;;1.65;;
54561;SDS011;69047;53.358;-1.486;2023-07-02T14:10:11;11.68;;;2.20;;
54561;SDS011;69047;53.358;-1.486;2023-07-02T14:12:38;9.88;;;1.70;;
54561;SDS011;69047;53.358;-1.486;2023-07-02T14:15:06;5.43;;;1.33;;
54561;SDS011;69047;53.358;-1.486;2023-07-02T14:17:34;7.75;;;1.75;;
54561;SDS011;69047;53.358;-1.486;2023-07-02T14:20:00;12.32;;;2.40;;
54561;SDS011;69047;53.358;-1.486;2023-07-02T14:22:25;9.20;;;2.60;;
54561;SDS011;69047;53.358;-1.486;2023-07-02T14:24:51;9.20;;;1.95;;
54561;SDS011;69047;53.358;-1.486;2023-07-02T14:27:17;6.32;;;1.75;;
54561;SDS011;69047;53.358;-1.486;2023-07-02T14:29:42;5.97;;;2.03;;
54561;SDS011;69047;53.358;-1.486;2023-07-02T14:32:08;5.55;;;1.65;;